Terminal Aerodrome Forecast
Issued by NWS Salt Lake City, UT

Home | Current Version | Previous Version | Text Only | Print | Product List | Glossary On
Versions: 1 2 3 4 5 6 7 8 9 10 11 12 13 14 15 16 17 18 19 20 21 22 23 24 25 26
000
FTUS45 KSLC 241120
TAFSLC
TAF
KSLC 241120Z 2412/2518 16010KT P6SM SKC
     FM241600 17014G22KT P6SM SKC
     FM242100 30012G20KT P6SM FEW080 SCT120
     FM250300 32010KT P6SM VCSH SCT040 BKN080
     FM250800 32006KT P6SM SCT080 BKN120=

USA.gov is the U.S. government's official web portal to all federal, state and local government web resources and services.